Messwerte Urganch

Temperatur

Temperatur
°C
1560949200 18.00 18.00 34
1560952800 19.00 19.00 33
1560956400 20.00 20.00 33
1560960000 21.00 21.00 28
1560963600 22.00 22.00 27
1560967200 23.00 23.00 26
1560970800 0.00 0.00 26
1560974400 1.00 1.00
1560978000 2.00 2.00 22
1560981600 3.00 3.00 23
1560985200 4.00 4.00
1560988800 5.00 5.00 22
1560992400 6.00 6.00 21
1560996000 7.00 7.00 23
1560999600 8.00 8.00 26
1561003200 9.00 9.00 27
1561006800 10.00 10.00 29
1561010400 11.00 11.00 30
1561014000 12.00 12.00 34
1561017600 13.00 13.00 35
1561021200 14.00 14.00 36
1561024800 15.00 15.00 37
1561028400 16.00 16.00 37
1561032000 17.00 17.00 37

Aktuellste Messwerte

Wettercharakter
Wetter: recht sonnig
Temperatur
37 °C
Feuchtigkeit
15 %
Wind
10 km/hWindrichtung: Nord
Luftdruck
1006 hPa
Messzeit: 20. Juni 2019, 18.00Datenquelle: METAR

Weitere Messstationen in der Nähe

Messstation Temperatur Entfernung
Dashoguz 37 °C 65 km
Nukus 36 °C 125 km
Buchara 37 °C 385 km
Aşgabat 38 °C 440 km
Mary 37 °C 453 km

Wind

Windrichtung Böen Mittelwind
° km/h km/h
1560949200 18.00 17.00 - 18.00 250° 5
1560952800 19.00 18.00 - 19.00 250° 10
1560956400 20.00 19.00 - 20.00 280° 10
1560960000 21.00 20.00 - 21.00 310° 15
1560963600 22.00 21.00 - 22.00 310° 15
1560967200 23.00 22.00 - 23.00 310° 15
1560970800 0.00 23.00 - 0.00 340° 15
1560974400 1.00 0.00 - 1.00
1560978000 2.00 1.00 - 2.00 10° 5
1560981600 3.00 2.00 - 3.00 30° 15
1560985200 4.00 3.00 - 4.00
1560988800 5.00 4.00 - 5.00 30° 10
1560992400 6.00 5.00 - 6.00 20° 5
1560996000 7.00 6.00 - 7.00 30° 10
1560999600 8.00 7.00 - 8.00 30° 10
1561003200 9.00 8.00 - 9.00 30° 15
1561006800 10.00 9.00 - 10.00 30° 10
1561010400 11.00 10.00 - 11.00 50° 10
1561014000 12.00 11.00 - 12.00 360° 10
1561017600 13.00 12.00 - 13.00 10° 15
1561021200 14.00 13.00 - 14.00 10° 15
1561024800 15.00 14.00 - 15.00 40° 10
1561028400 16.00 15.00 - 16.00 20° 10
1561032000 17.00 16.00 - 17.00 30° 10

Ihre Wetterstation

Fehlt Ihre Wetterstation auf unserem Portal?

Schreiben Sie an network@meteonews.ch

Klima

Wann ist es am wärmsten? Wann regnet es am wenigsten? Unsere Klimadaten geben Auskunft.